sensor_id;sensor_type;location;lat;lon;timestamp;temperature;humidity
46932;DHT22;32670;51.464;11.964;2023-04-29T00:00:03;22.50;51.60
46932;DHT22;32670;51.464;11.964;2023-04-29T00:02:31;22.50;51.70
46932;DHT22;32670;51.464;11.964;2023-04-29T00:04:56;22.50;51.80
46932;DHT22;32670;51.464;11.964;2023-04-29T00:07:22;22.50;51.70
46932;DHT22;32670;51.464;11.964;2023-04-29T00:09:47;22.50;51.60
46932;DHT22;32670;51.464;11.964;2023-04-29T00:12:13;22.50;51.50
46932;DHT22;32670;51.464;11.964;2023-04-29T00:14:38;22.50;51.60
46932;DHT22;32670;51.464;11.964;2023-04-29T00:17:04;22.60;51.70
46932;DHT22;32670;51.464;11.964;2023-04-29T00:19:29;22.60;51.70
46932;DHT22;32670;51.464;11.964;2023-04-29T00:21:55;22.60;51.70
46932;DHT22;32670;51.464;11.964;2023-04-29T00:24:21;22.60;51.70
46932;DHT22;32670;51.464;11.964;2023-04-29T00:26:46;22.60;51.80
46932;DHT22;32670;51.464;11.964;2023-04-29T00:29:11;22.60;51.80
46932;DHT22;32670;51.464;11.964;2023-04-29T00:31:37;22.60;51.80
46932;DHT22;32670;51.464;11.964;2023-04-29T00:34:03;22.60;51.80
46932;DHT22;32670;51.464;11.964;2023-04-29T00:36:28;22.60;51.90
46932;DHT22;32670;51.464;11.964;2023-04-29T00:38:56;22.60;51.80
46932;DHT22;32670;51.464;11.964;2023-04-29T00:41:22;22.60;51.90
46932;DHT22;32670;51.464;11.964;2023-04-29T00:43:48;22.60;51.80
46932;DHT22;32670;51.464;11.964;2023-04-29T00:46:13;22.60;51.90
46932;DHT22;32670;51.464;11.964;2023-04-29T00:48:39;22.70;52.00
46932;DHT22;32670;51.464;11.964;2023-04-29T00:51:05;22.60;52.00
46932;DHT22;32670;51.464;11.964;2023-04-29T00:53:32;22.60;52.00
46932;DHT22;32670;51.464;11.964;2023-04-29T00:55:59;22.60;51.80
46932;DHT22;32670;51.464;11.964;2023-04-29T00:58:25;22.70;52.20
46932;DHT22;32670;51.464;11.964;2023-04-29T01:00:58;22.70;52.20
46932;DHT22;32670;51.464;11.964;2023-04-29T01:03:24;22.70;52.10
46932;DHT22;32670;51.464;11.964;2023-04-29T01:06:03;22.70;52.80
46932;DHT22;32670;51.464;11.964;2023-04-29T01:08:51;22.70;52.30
46932;DHT22;32670;51.464;11.964;2023-04-29T01:11:22;22.70;52.30
46932;DHT22;32670;51.464;11.964;2023-04-29T01:13:58;22.70;52.20
46932;DHT22;32670;51.464;11.964;2023-04-29T01:16:33;22.70;52.20
46932;DHT22;32670;51.464;11.964;2023-04-29T01:19:11;22.70;52.50
46932;DHT22;32670;51.464;11.964;2023-04-29T01:21:46;22.70;52.40
46932;DHT22;32670;51.464;11.964;2023-04-29T01:24:13;22.70;52.30
46932;DHT22;32670;51.464;11.964;2023-04-29T01:26:40;22.70;52.50
46932;DHT22;32670;51.464;11.964;2023-04-29T01:29:33;22.70;52.40
46932;DHT22;32670;51.464;11.964;2023-04-29T01:32:10;22.70;52.70
46932;DHT22;32670;51.464;11.964;2023-04-29T01:34:48;22.70;52.50
46932;DHT22;32670;51.464;11.964;2023-04-29T01:37:32;22.70;52.50
46932;DHT22;32670;51.464;11.964;2023-04-29T01:40:16;22.70;52.60
46932;DHT22;32670;51.464;11.964;2023-04-29T01:43:00;22.70;52.60
46932;DHT22;32670;51.464;11.964;2023-04-29T01:45:27;22.70;52.60
46932;DHT22;32670;51.464;11.964;2023-04-29T01:47:53;22.70;53.20
46932;DHT22;32670;51.464;11.964;2023-04-29T01:50:22;22.70;52.70
46932;DHT22;32670;51.464;11.964;2023-04-29T01:52:47;22.70;52.70
46932;DHT22;32670;51.464;11.964;2023-04-29T01:55:13;22.70;52.60
46932;DHT22;32670;51.464;11.964;2023-04-29T01:57:38;22.70;52.60
46932;DHT22;32670;51.464;11.964;2023-04-29T02:00:04;22.70;52.60
46932;DHT22;32670;51.464;11.964;2023-04-29T02:02:30;22.70;52.60
46932;DHT22;32670;51.464;11.964;2023-04-29T02:04:55;22.80;52.70
46932;DHT22;32670;51.464;11.964;2023-04-29T02:07:21;22.70;52.70
46932;DHT22;32670;51.464;11.964;2023-04-29T02:09:46;22.80;52.70
46932;DHT22;32670;51.464;11.964;2023-04-29T02:12:12;22.70;52.80
46932;DHT22;32670;51.464;11.964;2023-04-29T02:14:37;22.70;52.90
46932;DHT22;32670;51.464;11.964;2023-04-29T02:17:03;22.80;53.00
46932;DHT22;32670;51.464;11.964;2023-04-29T02:19:29;22.80;53.00
46932;DHT22;32670;51.464;11.964;2023-04-29T02:21:54;22.70;53.10
46932;DHT22;32670;51.464;11.964;2023-04-29T02:24:20;22.80;53.40
46932;DHT22;32670;51.464;11.964;2023-04-29T02:26:45;22.80;53.20
46932;DHT22;32670;51.464;11.964;2023-04-29T02:29:10;22.80;53.20
46932;DHT22;32670;51.464;11.964;2023-04-29T02:31:36;22.80;53.30
46932;DHT22;32670;51.464;11.964;2023-04-29T02:34:02;22.80;53.40
46932;DHT22;32670;51.464;11.964;2023-04-29T02:36:28;22.80;53.40
46932;DHT22;32670;51.464;11.964;2023-04-29T02:38:54;22.80;53.40
46932;DHT22;32670;51.464;11.964;2023-04-29T02:41:20;22.80;53.50
46932;DHT22;32670;51.464;11.964;2023-04-29T02:43:46;22.80;53.50
46932;DHT22;32670;51.464;11.964;2023-04-29T02:46:13;22.80;53.40
46932;DHT22;32670;51.464;11.964;2023-04-29T02:48:39;22.80;53.50
46932;DHT22;32670;51.464;11.964;2023-04-29T02:51:04;22.80;53.40
46932;DHT22;32670;51.464;11.964;2023-04-29T02:53:30;22.80;53.40
46932;DHT22;32670;51.464;11.964;2023-04-29T02:55:56;22.80;53.40
46932;DHT22;32670;51.464;11.964;2023-04-29T02:58:22;22.80;53.30
46932;DHT22;32670;51.464;11.964;2023-04-29T03:00:47;22.80;53.50
46932;DHT22;32670;51.464;11.964;2023-04-29T03:03:13;22.80;53.50
46932;DHT22;32670;51.464;11.964;2023-04-29T03:05:38;22.90;53.60
46932;DHT22;32670;51.464;11.964;2023-04-29T03:08:04;22.80;53.50
46932;DHT22;32670;51.464;11.964;2023-04-29T03:10:29;22.80;53.50
46932;DHT22;32670;51.464;11.964;2023-04-29T03:12:55;22.90;53.70
46932;DHT22;32670;51.464;11.964;2023-04-29T03:15:20;22.80;53.70
46932;DHT22;32670;51.464;11.964;2023-04-29T03:17:46;22.80;53.60
46932;DHT22;32670;51.464;11.964;2023-04-29T03:20:11;22.90;53.60
46932;DHT22;32670;51.464;11.964;2023-04-29T03:22:37;22.90;53.60
46932;DHT22;32670;51.464;11.964;2023-04-29T03:25:03;22.90;53.70
46932;DHT22;32670;51.464;11.964;2023-04-29T03:27:31;22.90;53.60
46932;DHT22;32670;51.464;11.964;2023-04-29T03:29:56;22.90;53.70
46932;DHT22;32670;51.464;11.964;2023-04-29T03:32:22;22.90;53.70
46932;DHT22;32670;51.464;11.964;2023-04-29T03:34:48;22.90;53.80
46932;DHT22;32670;51.464;11.964;2023-04-29T03:37:13;22.90;53.80
46932;DHT22;32670;51.464;11.964;2023-04-29T03:39:40;22.90;53.70
46932;DHT22;32670;51.464;11.964;2023-04-29T03:42:06;22.90;53.80
46932;DHT22;32670;51.464;11.964;2023-04-29T03:44:32;22.90;53.90
46932;DHT22;32670;51.464;11.964;2023-04-29T03:46:57;22.90;53.90
46932;DHT22;32670;51.464;11.964;2023-04-29T03:49:23;22.90;53.90
46932;DHT22;32670;51.464;11.964;2023-04-29T03:51:48;22.90;53.90
46932;DHT22;32670;51.464;11.964;2023-04-29T03:54:14;22.90;53.80
46932;DHT22;32670;51.464;11.964;2023-04-29T03:56:39;22.90;53.90
46932;DHT22;32670;51.464;11.964;2023-04-29T03:59:05;23.00;54.00
46932;DHT22;32670;51.464;11.964;2023-04-29T04:01:30;23.00;54.00
46932;DHT22;32670;51.464;11.964;2023-04-29T04:03:56;23.00;54.10
46932;DHT22;32670;51.464;11.964;2023-04-29T04:06:22;23.00;54.20
46932;DHT22;32670;51.464;11.964;2023-04-29T04:08:47;22.90;54.20
46932;DHT22;32670;51.464;11.964;2023-04-29T04:11:13;22.90;54.10
46932;DHT22;32670;51.464;11.964;2023-04-29T04:13:40;23.00;54.30
46932;DHT22;32670;51.464;11.964;2023-04-29T04:16:08;23.00;54.30
46932;DHT22;32670;51.464;11.964;2023-04-29T04:18:35;23.00;54.20
46932;DHT22;32670;51.464;11.964;2023-04-29T04:21:05;22.90;54.20
46932;DHT22;32670;51.464;11.964;2023-04-29T04:23:31;22.90;54.30
46932;DHT22;32670;51.464;11.964;2023-04-29T04:25:56;23.00;54.20
46932;DHT22;32670;51.464;11.964;2023-04-29T04:28:22;23.00;54.40
46932;DHT22;32670;51.464;11.964;2023-04-29T04:30:47;22.90;54.30
46932;DHT22;32670;51.464;11.964;2023-04-29T04:33:13;22.90;54.20
46932;DHT22;32670;51.464;11.964;2023-04-29T04:35:38;22.90;54.30
46932;DHT22;32670;51.464;11.964;2023-04-29T04:38:04;23.00;54.40
46932;DHT22;32670;51.464;11.964;2023-04-29T04:40:29;22.90;54.30
46932;DHT22;32670;51.464;11.964;2023-04-29T04:42:55;22.90;54.40
46932;DHT22;32670;51.464;11.964;2023-04-29T04:45:20;23.00;54.40
46932;DHT22;32670;51.464;11.964;2023-04-29T04:47:46;23.00;54.50
46932;DHT22;32670;51.464;11.964;2023-04-29T04:50:11;23.00;54.50
46932;DHT22;32670;51.464;11.964;2023-04-29T04:52:37;23.00;54.50
46932;DHT22;32670;51.464;11.964;2023-04-29T04:55:02;23.00;54.40
46932;DHT22;32670;51.464;11.964;2023-04-29T04:57:28;23.00;54.30
46932;DHT22;32670;51.464;11.964;2023-04-29T04:59:53;23.00;54.70
46932;DHT22;32670;51.464;11.964;2023-04-29T05:02:19;23.00;54.20
46932;DHT22;32670;51.464;11.964;2023-04-29T05:04:44;23.00;54.00
46932;DHT22;32670;51.464;11.964;2023-04-29T05:07:10;23.00;54.00
46932;DHT22;32670;51.464;11.964;2023-04-29T05:09:36;23.00;54.00
46932;DHT22;32670;51.464;11.964;2023-04-29T05:12:01;23.00;54.00
46932;DHT22;32670;51.464;11.964;2023-04-29T05:14:27;23.00;53.90
46932;DHT22;32670;51.464;11.964;2023-04-29T05:16:52;23.00;53.90
46932;DHT22;32670;51.464;11.964;2023-04-29T05:19:22;23.00;54.00
46932;DHT22;32670;51.464;11.964;2023-04-29T05:21:47;23.00;54.10
46932;DHT22;32670;51.464;11.964;2023-04-29T05:24:13;23.00;54.00
46932;DHT22;32670;51.464;11.964;2023-04-29T05:26:39;23.00;54.10
46932;DHT22;32670;51.464;11.964;2023-04-29T05:29:06;23.00;53.80
46932;DHT22;32670;51.464;11.964;2023-04-29T05:31:31;23.00;53.90
46932;DHT22;32670;51.464;11.964;2023-04-29T05:33:57;23.00;53.70
46932;DHT22;32670;51.464;11.964;2023-04-29T05:36:23;23.10;54.00
46932;DHT22;32670;51.464;11.964;2023-04-29T05:38:48;23.10;53.50
46932;DHT22;32670;51.464;11.964;2023-04-29T05:41:14;23.00;51.60
46932;DHT22;32670;51.464;11.964;2023-04-29T05:43:39;22.90;50.50
46932;DHT22;32670;51.464;11.964;2023-04-29T05:46:06;22.70;49.90
46932;DHT22;32670;51.464;11.964;2023-04-29T05:48:31;22.50;50.00
46932;DHT22;32670;51.464;11.964;2023-04-29T05:50:57;22.30;50.20
46932;DHT22;32670;51.464;11.964;2023-04-29T05:53:22;22.20;50.40
46932;DHT22;32670;51.464;11.964;2023-04-29T05:55:48;22.10;50.70
46932;DHT22;32670;51.464;11.964;2023-04-29T05:58:15;22.00;50.80
46932;DHT22;32670;51.464;11.964;2023-04-29T06:00:41;21.90;50.90
46932;DHT22;32670;51.464;11.964;2023-04-29T06:03:08;21.90;51.10
46932;DHT22;32670;51.464;11.964;2023-04-29T06:05:35;21.80;51.20
46932;DHT22;32670;51.464;11.964;2023-04-29T06:08:00;21.80;51.40
46932;DHT22;32670;51.464;11.964;2023-04-29T06:10:26;21.70;51.50
46932;DHT22;32670;51.464;11.964;2023-04-29T06:12:51;21.60;51.50
46932;DHT22;32670;51.464;11.964;2023-04-29T06:15:17;21.60;51.40
46932;DHT22;32670;51.464;11.964;2023-04-29T06:17:42;21.60;51.50
46932;DHT22;32670;51.464;11.964;2023-04-29T06:20:08;21.60;51.60
46932;DHT22;32670;51.464;11.964;2023-04-29T06:22:34;21.50;51.60
46932;DHT22;32670;51.464;11.964;2023-04-29T06:25:00;21.50;51.40
46932;DHT22;32670;51.464;11.964;2023-04-29T06:27:25;21.50;52.00
46932;DHT22;32670;51.464;11.964;2023-04-29T06:29:51;21.50;51.40
46932;DHT22;32670;51.464;11.964;2023-04-29T06:32:16;21.40;51.40
46932;DHT22;32670;51.464;11.964;2023-04-29T06:34:41;21.30;51.10
46932;DHT22;32670;51.464;11.964;2023-04-29T06:37:07;21.30;51.10
46932;DHT22;32670;51.464;11.964;2023-04-29T06:39:32;21.30;51.00
46932;DHT22;32670;51.464;11.964;2023-04-29T06:41:58;21.30;51.10
46932;DHT22;32670;51.464;11.964;2023-04-29T06:44:24;21.30;50.70
46932;DHT22;32670;51.464;11.964;2023-04-29T06:46:49;21.20;50.40
46932;DHT22;32670;51.464;11.964;2023-04-29T06:49:14;21.20;50.40
46932;DHT22;32670;51.464;11.964;2023-04-29T06:51:40;21.20;50.20
46932;DHT22;32670;51.464;11.964;2023-04-29T06:54:07;21.00;50.10
46932;DHT22;32670;51.464;11.964;2023-04-29T06:56:32;21.00;50.10
46932;DHT22;32670;51.464;11.964;2023-04-29T06:58:58;21.00;50.00
46932;DHT22;32670;51.464;11.964;2023-04-29T07:01:23;21.00;49.90
46932;DHT22;32670;51.464;11.964;2023-04-29T07:03:48;21.00;50.00
46932;DHT22;32670;51.464;11.964;2023-04-29T07:06:14;20.90;49.90
46932;DHT22;32670;51.464;11.964;2023-04-29T07:08:39;20.90;49.90
46932;DHT22;32670;51.464;11.964;2023-04-29T07:11:05;20.90;50.00
46932;DHT22;32670;51.464;11.964;2023-04-29T07:13:30;20.90;49.90
46932;DHT22;32670;51.464;11.964;2023-04-29T07:15:56;20.80;49.90
46932;DHT22;32670;51.464;11.964;2023-04-29T07:18:21;20.90;50.00
46932;DHT22;32670;51.464;11.964;2023-04-29T07:20:47;20.80;49.90
46932;DHT22;32670;51.464;11.964;2023-04-29T07:23:13;20.80;50.10
46932;DHT22;32670;51.464;11.964;2023-04-29T07:25:39;20.80;50.30
46932;DHT22;32670;51.464;11.964;2023-04-29T07:28:05;20.90;50.10
46932;DHT22;32670;51.464;11.964;2023-04-29T07:30:31;21.00;50.50
46932;DHT22;32670;51.464;11.964;2023-04-29T07:32:56;21.10;49.80
46932;DHT22;32670;51.464;11.964;2023-04-29T07:35:21;21.20;49.60
46932;DHT22;32670;51.464;11.964;2023-04-29T07:37:47;21.20;49.40
46932;DHT22;32670;51.464;11.964;2023-04-29T07:40:13;21.30;49.30
46932;DHT22;32670;51.464;11.964;2023-04-29T07:42:38;21.40;49.30
46932;DHT22;32670;51.464;11.964;2023-04-29T07:45:04;21.40;49.20
46932;DHT22;32670;51.464;11.964;2023-04-29T07:47:30;21.40;49.10
46932;DHT22;32670;51.464;11.964;2023-04-29T07:49:56;21.50;49.00
46932;DHT22;32670;51.464;11.964;2023-04-29T07:52:21;21.50;49.00
46932;DHT22;32670;51.464;11.964;2023-04-29T07:54:47;21.50;48.90
46932;DHT22;32670;51.464;11.964;2023-04-29T07:57:12;21.60;48.80
46932;DHT22;32670;51.464;11.964;2023-04-29T07:59:38;21.60;48.80
46932;DHT22;32670;51.464;11.964;2023-04-29T08:02:03;21.60;48.70
46932;DHT22;32670;51.464;11.964;2023-04-29T08:04:29;21.60;48.80
46932;DHT22;32670;51.464;11.964;2023-04-29T08:06:54;21.60;48.70
46932;DHT22;32670;51.464;11.964;2023-04-29T08:09:20;21.70;48.70
46932;DHT22;32670;51.464;11.964;2023-04-29T08:11:45;21.70;48.70
46932;DHT22;32670;51.464;11.964;2023-04-29T08:14:11;21.70;48.70
46932;DHT22;32670;51.464;11.964;2023-04-29T08:16:36;21.70;48.60
46932;DHT22;32670;51.464;11.964;2023-04-29T08:19:02;21.70;48.60
46932;DHT22;32670;51.464;11.964;2023-04-29T08:21:27;21.70;48.50
46932;DHT22;32670;51.464;11.964;2023-04-29T08:23:53;21.70;48.50
46932;DHT22;32670;51.464;11.964;2023-04-29T08:26:20;21.70;48.50
46932;DHT22;32670;51.464;11.964;2023-04-29T08:28:45;21.70;48.50
46932;DHT22;32670;51.464;11.964;2023-04-29T08:31:18;21.70;48.50
46932;DHT22;32670;51.464;11.964;2023-04-29T08:33:43;21.80;48.60
46932;DHT22;32670;51.464;11.964;2023-04-29T08:36:09;21.80;48.50
46932;DHT22;32670;51.464;11.964;2023-04-29T08:38:35;21.70;48.30
46932;DHT22;32670;51.464;11.964;2023-04-29T08:41:00;21.80;48.40
46932;DHT22;32670;51.464;11.964;2023-04-29T08:43:26;21.70;48.30
46932;DHT22;32670;51.464;11.964;2023-04-29T08:45:51;21.80;48.30
46932;DHT22;32670;51.464;11.964;2023-04-29T08:48:17;21.80;48.30
46932;DHT22;32670;51.464;11.964;2023-04-29T08:50:44;21.80;48.20
46932;DHT22;32670;51.464;11.964;2023-04-29T08:53:11;21.80;48.20
46932;DHT22;32670;51.464;11.964;2023-04-29T08:55:44;21.80;48.20
46932;DHT22;32670;51.464;11.964;2023-04-29T08:58:11;21.80;48.20
46932;DHT22;32670;51.464;11.964;2023-04-29T09:00:37;21.80;48.10
46932;DHT22;32670;51.464;11.964;2023-04-29T09:05:55;21.80;48.10
46932;DHT22;32670;51.464;11.964;2023-04-29T09:08:22;21.80;48.00
46932;DHT22;32670;51.464;11.964;2023-04-29T09:10:48;21.80;48.00
46932;DHT22;32670;51.464;11.964;2023-04-29T09:13:31;21.80;48.00
46932;DHT22;32670;51.464;11.964;2023-04-29T09:15:57;21.80;47.90
46932;DHT22;32670;51.464;11.964;2023-04-29T09:21:19;21.80;47.80
46932;DHT22;32670;51.464;11.964;2023-04-29T09:23:46;21.80;47.80
46932;DHT22;32670;51.464;11.964;2023-04-29T09:26:12;21.80;47.80
46932;DHT22;32670;51.464;11.964;2023-04-29T09:28:38;21.80;47.90
46932;DHT22;32670;51.464;11.964;2023-04-29T09:31:08;21.80;47.80
46932;DHT22;32670;51.464;11.964;2023-04-29T09:33:52;21.80;47.70
46932;DHT22;32670;51.464;11.964;2023-04-29T09:36:47;21.80;47.70
46932;DHT22;32670;51.464;11.964;2023-04-29T09:39:15;21.80;47.70
46932;DHT22;32670;51.464;11.964;2023-04-29T09:44:24;21.80;47.60
46932;DHT22;32670;51.464;11.964;2023-04-29T09:47:00;21.80;47.60
46932;DHT22;32670;51.464;11.964;2023-04-29T09:52:14;21.80;47.60
46932;DHT22;32670;51.464;11.964;2023-04-29T09:54:41;21.80;47.60
46932;DHT22;32670;51.464;11.964;2023-04-29T09:57:09;21.90;47.50
46932;DHT22;32670;51.464;11.964;2023-04-29T09:59:36;21.90;47.50
46932;DHT22;32670;51.464;11.964;2023-04-29T10:02:09;21.80;47.40
46932;DHT22;32670;51.464;11.964;2023-04-29T10:04:39;21.90;47.50
46932;DHT22;32670;51.464;11.964;2023-04-29T10:07:06;21.90;48.10
46932;DHT22;32670;51.464;11.964;2023-04-29T10:09:33;21.90;47.50
46932;DHT22;32670;51.464;11.964;2023-04-29T10:11:59;21.80;47.40
46932;DHT22;32670;51.464;11.964;2023-04-29T10:14:26;21.90;47.50
46932;DHT22;32670;51.464;11.964;2023-04-29T10:17:02;21.80;48.00
46932;DHT22;32670;51.464;11.964;2023-04-29T10:19:51;21.90;47.40
46932;DHT22;32670;51.464;11.964;2023-04-29T10:22:25;21.90;47.40
46932;DHT22;32670;51.464;11.964;2023-04-29T10:24:52;21.80;47.30
46932;DHT22;32670;51.464;11.964;2023-04-29T10:27:19;21.80;47.30
46932;DHT22;32670;51.464;11.964;2023-04-29T10:29:47;21.90;47.30
46932;DHT22;32670;51.464;11.964;2023-04-29T10:32:15;21.90;47.30
46932;DHT22;32670;51.464;11.964;2023-04-29T10:34:41;21.90;47.30
46932;DHT22;32670;51.464;11.964;2023-04-29T10:37:09;21.90;47.20
46932;DHT22;32670;51.464;11.964;2023-04-29T10:42:36;21.90;47.20
46932;DHT22;32670;51.464;11.964;2023-04-29T10:50:32;21.90;47.20
46932;DHT22;32670;51.464;11.964;2023-04-29T10:53:00;21.90;47.20
46932;DHT22;32670;51.464;11.964;2023-04-29T10:55:26;21.90;47.10
46932;DHT22;32670;51.464;11.964;2023-04-29T10:57:52;21.90;47.10
46932;DHT22;32670;51.464;11.964;2023-04-29T11:00:28;21.90;47.10
46932;DHT22;32670;51.464;11.964;2023-04-29T11:02:57;21.90;47.10
46932;DHT22;32670;51.464;11.964;2023-04-29T11:05:30;21.90;47.00
46932;DHT22;32670;51.464;11.964;2023-04-29T11:08:19;21.90;47.00
46932;DHT22;32670;51.464;11.964;2023-04-29T11:10:52;21.90;47.00
46932;DHT22;32670;51.464;11.964;2023-04-29T11:13:25;21.90;47.00
46932;DHT22;32670;51.464;11.964;2023-04-29T11:16:07;21.90;47.00
46932;DHT22;32670;51.464;11.964;2023-04-29T11:18:34;21.90;47.00
46932;DHT22;32670;51.464;11.964;2023-04-29T11:23:29;21.90;47.00
46932;DHT22;32670;51.464;11.964;2023-04-29T11:25:57;21.90;46.90
46932;DHT22;32670;51.464;11.964;2023-04-29T11:28:23;21.90;47.00
46932;DHT22;32670;51.464;11.964;2023-04-29T11:30:49;21.90;46.90
46932;DHT22;32670;51.464;11.964;2023-04-29T11:33:15;21.90;46.90
46932;DHT22;32670;51.464;11.964;2023-04-29T11:35:41;21.90;46.90
46932;DHT22;32670;51.464;11.964;2023-04-29T11:38:07;21.90;46.90
46932;DHT22;32670;51.464;11.964;2023-04-29T11:40:33;21.90;46.90
46932;DHT22;32670;51.464;11.964;2023-04-29T11:42:59;21.90;46.90
46932;DHT22;32670;51.464;11.964;2023-04-29T11:45:24;21.90;46.90
46932;DHT22;32670;51.464;11.964;2023-04-29T11:47:50;21.90;46.90
46932;DHT22;32670;51.464;11.964;2023-04-29T11:50:17;22.00;46.90
46932;DHT22;32670;51.464;11.964;2023-04-29T11:52:46;21.90;46.80
46932;DHT22;32670;51.464;11.964;2023-04-29T11:55:12;21.90;46.80
46932;DHT22;32670;51.464;11.964;2023-04-29T11:57:39;21.90;46.70
46932;DHT22;32670;51.464;11.964;2023-04-29T12:00:08;22.00;46.70
46932;DHT22;32670;51.464;11.964;2023-04-29T12:02:35;21.90;46.70
46932;DHT22;32670;51.464;11.964;2023-04-29T12:05:05;21.90;46.60
46932;DHT22;32670;51.464;11.964;2023-04-29T12:07:31;21.90;46.60
46932;DHT22;32670;51.464;11.964;2023-04-29T12:09:57;22.00;46.70
46932;DHT22;32670;51.464;11.964;2023-04-29T12:12:22;21.90;46.60
46932;DHT22;32670;51.464;11.964;2023-04-29T12:14:48;21.90;46.60
46932;DHT22;32670;51.464;11.964;2023-04-29T12:17:14;21.90;46.60
46932;DHT22;32670;51.464;11.964;2023-04-29T12:19:41;22.00;47.10
46932;DHT22;32670;51.464;11.964;2023-04-29T12:22:08;22.00;47.00
46932;DHT22;32670;51.464;11.964;2023-04-29T12:24:37;22.00;47.40
46932;DHT22;32670;51.464;11.964;2023-04-29T12:27:07;22.00;47.20
46932;DHT22;32670;51.464;11.964;2023-04-29T12:29:35;22.00;47.10
46932;DHT22;32670;51.464;11.964;2023-04-29T12:32:00;22.00;47.00
46932;DHT22;32670;51.464;11.964;2023-04-29T12:34:30;22.00;47.00
46932;DHT22;32670;51.464;11.964;2023-04-29T12:36:58;22.00;46.90
46932;DHT22;32670;51.464;11.964;2023-04-29T12:39:27;22.00;46.90
46932;DHT22;32670;51.464;11.964;2023-04-29T12:41:57;22.00;46.80
46932;DHT22;32670;51.464;11.964;2023-04-29T12:44:24;22.00;46.80
46932;DHT22;32670;51.464;11.964;2023-04-29T12:46:49;22.00;46.80
46932;DHT22;32670;51.464;11.964;2023-04-29T12:49:17;22.00;46.80
46932;DHT22;32670;51.464;11.964;2023-04-29T12:51:43;22.00;46.80
46932;DHT22;32670;51.464;11.964;2023-04-29T12:54:08;22.00;46.90
46932;DHT22;32670;51.464;11.964;2023-04-29T12:56:34;22.00;47.20
46932;DHT22;32670;51.464;11.964;2023-04-29T12:59:09;22.00;47.40
46932;DHT22;32670;51.464;11.964;2023-04-29T13:01:35;21.90;47.20
46932;DHT22;32670;51.464;11.964;2023-04-29T13:04:01;22.00;47.10
46932;DHT22;32670;51.464;11.964;2023-04-29T13:06:26;22.00;47.00
46932;DHT22;32670;51.464;11.964;2023-04-29T13:08:52;22.00;47.00
46932;DHT22;32670;51.464;11.964;2023-04-29T13:11:17;22.00;47.00
46932;DHT22;32670;51.464;11.964;2023-04-29T13:13:43;22.00;46.90
46932;DHT22;32670;51.464;11.964;2023-04-29T13:16:08;22.00;46.90
46932;DHT22;32670;51.464;11.964;2023-04-29T13:18:34;22.00;46.90
46932;DHT22;32670;51.464;11.964;2023-04-29T13:21:00;22.00;46.90
46932;DHT22;32670;51.464;11.964;2023-04-29T13:23:25;22.00;46.90
46932;DHT22;32670;51.464;11.964;2023-04-29T13:25:51;22.00;46.80
46932;DHT22;32670;51.464;11.964;2023-04-29T13:28:17;22.00;46.80
46932;DHT22;32670;51.464;11.964;2023-04-29T13:30:42;22.00;46.90
46932;DHT22;32670;51.464;11.964;2023-04-29T13:33:08;22.00;46.80
46932;DHT22;32670;51.464;11.964;2023-04-29T13:35:33;22.00;46.80
46932;DHT22;32670;51.464;11.964;2023-04-29T13:38:02;22.00;46.70
46932;DHT22;32670;51.464;11.964;2023-04-29T13:40:28;22.00;46.70
46932;DHT22;32670;51.464;11.964;2023-04-29T13:42:54;22.00;46.70
46932;DHT22;32670;51.464;11.964;2023-04-29T13:45:19;22.00;46.70
46932;DHT22;32670;51.464;11.964;2023-04-29T13:47:45;22.00;46.70
46932;DHT22;32670;51.464;11.964;2023-04-29T13:50:10;22.00;46.70
46932;DHT22;32670;51.464;11.964;2023-04-29T13:52:37;22.00;46.70
46932;DHT22;32670;51.464;11.964;2023-04-29T13:55:02;22.00;46.60
46932;DHT22;32670;51.464;11.964;2023-04-29T13:57:28;22.00;46.60
46932;DHT22;32670;51.464;11.964;2023-04-29T13:59:53;22.00;46.70
46932;DHT22;32670;51.464;11.964;2023-04-29T14:02:22;22.00;46.60
46932;DHT22;32670;51.464;11.964;2023-04-29T14:04:47;22.00;46.60
46932;DHT22;32670;51.464;11.964;2023-04-29T14:07:13;22.00;46.50
46932;DHT22;32670;51.464;11.964;2023-04-29T14:09:39;22.00;46.60
46932;DHT22;32670;51.464;11.964;2023-04-29T14:12:05;22.00;46.60
46932;DHT22;32670;51.464;11.964;2023-04-29T14:14:30;22.00;46.60
46932;DHT22;32670;51.464;11.964;2023-04-29T14:16:56;22.10;46.60
46932;DHT22;32670;51.464;11.964;2023-04-29T14:19:22;22.00;46.60
46932;DHT22;32670;51.464;11.964;2023-04-29T14:21:47;22.00;46.60
46932;DHT22;32670;51.464;11.964;2023-04-29T14:24:13;22.10;46.60
46932;DHT22;32670;51.464;11.964;2023-04-29T14:26:38;22.00;46.50
46932;DHT22;32670;51.464;11.964;2023-04-29T14:29:04;22.00;46.50
46932;DHT22;32670;51.464;11.964;2023-04-29T14:31:33;22.00;46.50
46932;DHT22;32670;51.464;11.964;2023-04-29T14:34:02;22.10;47.10
46932;DHT22;32670;51.464;11.964;2023-04-29T14:36:28;22.00;46.50
46932;DHT22;32670;51.464;11.964;2023-04-29T14:38:53;22.00;46.50
46932;DHT22;32670;51.464;11.964;2023-04-29T14:41:19;22.10;46.50
46932;DHT22;32670;51.464;11.964;2023-04-29T14:43:46;22.00;46.50
46932;DHT22;32670;51.464;11.964;2023-04-29T14:46:11;22.10;47.10
46932;DHT22;32670;51.464;11.964;2023-04-29T14:48:37;22.00;47.00
46932;DHT22;32670;51.464;11.964;2023-04-29T14:51:02;22.00;46.70
46932;DHT22;32670;51.464;11.964;2023-04-29T14:53:28;22.10;46.70
46932;DHT22;32670;51.464;11.964;2023-04-29T14:55:54;22.10;46.70
46932;DHT22;32670;51.464;11.964;2023-04-29T14:58:19;22.10;46.70
46932;DHT22;32670;51.464;11.964;2023-04-29T15:00:45;22.00;46.70
46932;DHT22;32670;51.464;11.964;2023-04-29T15:03:11;22.10;46.60
46932;DHT22;32670;51.464;11.964;2023-04-29T15:05:36;22.10;46.60
46932;DHT22;32670;51.464;11.964;2023-04-29T15:08:02;22.10;46.60
46932;DHT22;32670;51.464;11.964;2023-04-29T15:10:28;22.10;46.60
46932;DHT22;32670;51.464;11.964;2023-04-29T15:12:54;22.10;46.60
46932;DHT22;32670;51.464;11.964;2023-04-29T15:15:20;22.10;46.50
46932;DHT22;32670;51.464;11.964;2023-04-29T15:17:46;22.10;46.50
46932;DHT22;32670;51.464;11.964;2023-04-29T15:20:11;22.10;46.50
46932;DHT22;32670;51.464;11.964;2023-04-29T15:22:37;22.00;46.50
46932;DHT22;32670;51.464;11.964;2023-04-29T15:25:04;22.10;46.50
46932;DHT22;32670;51.464;11.964;2023-04-29T15:27:30;22.10;46.50
46932;DHT22;32670;51.464;11.964;2023-04-29T15:29:55;22.10;46.50
46932;DHT22;32670;51.464;11.964;2023-04-29T15:32:22;22.10;46.50
46932;DHT22;32670;51.464;11.964;2023-04-29T15:34:49;22.10;46.50